<?xml version="1.0" encoding="utf-8"?>
<gpx xmlns:xsi="http://www.w3.org/2001/XMLSchema-instance" xmlns:xsd="http://www.w3.org/2001/XMLSchema" version="1.1" creator="Shapelink.com" xmlns="http://www.topografix.com/GPX/1/1" xmlns:gpxtpx="http://www.garmin.com/xmlschemas/TrackPointExtension/v1">
  <metadata>
    <name>Övrigt 1.54 km, 2019-01-25</name>
    <desc></desc>
    <author><name>Marian Moron</name></author> 
    <time>2019-01-25T21:18:58Z</time>
  </metadata>
  <trk>
    <name>Övrigt 1.54 km, 2019-01-25</name>
    <trkseg>
      <trkpt lat="51.229725038902" lon="4.457879568305">
        <ele>31.2</ele>
        <time>2019-01-25T21:18:58Z</time>
      </trkpt>
      <trkpt lat="51.229839451837" lon="4.457999764751">
        <ele>15.4</ele>
        <time>2019-01-25T21:19:04Z</time>
      </trkpt>
      <trkpt lat="51.229899298603" lon="4.458228422983">
        <ele>11</ele>
        <time>2019-01-25T21:19:15Z</time>
      </trkpt>
      <trkpt lat="51.229909943616" lon="4.458261280031">
        <ele>11.2</ele>
        <time>2019-01-25T21:19:17Z</time>
      </trkpt>
      <trkpt lat="51.229977920825" lon="4.458598567687">
        <ele>9.8</ele>
        <time>2019-01-25T21:19:41Z</time>
      </trkpt>
      <trkpt lat="51.230024272732" lon="4.458884725753">
        <ele>10.2</ele>
        <time>2019-01-25T21:19:54Z</time>
      </trkpt>
      <trkpt lat="51.229988482019" lon="4.45887827169">
        <ele>10.8</ele>
        <time>2019-01-25T21:20:14Z</time>
      </trkpt>
      <trkpt lat="51.230443367732" lon="4.458789088274">
        <ele>10</ele>
        <time>2019-01-25T21:20:47Z</time>
      </trkpt>
      <trkpt lat="51.230559708504" lon="4.458883049373">
        <ele>9.6</ele>
        <time>2019-01-25T21:21:03Z</time>
      </trkpt>
      <trkpt lat="51.23053657446" lon="4.458970304952">
        <ele>10.6</ele>
        <time>2019-01-25T21:21:30Z</time>
      </trkpt>
      <trkpt lat="51.230576891399" lon="4.45959073319">
        <ele>12.8</ele>
        <time>2019-01-25T21:22:27Z</time>
      </trkpt>
      <trkpt lat="51.230606898601" lon="4.45981033897">
        <ele>13</ele>
        <time>2019-01-25T21:22:44Z</time>
      </trkpt>
      <trkpt lat="51.230604803126" lon="4.459845962045">
        <ele>13</ele>
        <time>2019-01-25T21:22:46Z</time>
      </trkpt>
      <trkpt lat="51.230618968537" lon="4.460030028569">
        <ele>13</ele>
        <time>2019-01-25T21:23:02Z</time>
      </trkpt>
      <trkpt lat="51.230584016014" lon="4.460721283862">
        <ele>12.8</ele>
        <time>2019-01-25T21:23:46Z</time>
      </trkpt>
      <trkpt lat="51.230540430134" lon="4.460753554177">
        <ele>12.8</ele>
        <time>2019-01-25T21:23:54Z</time>
      </trkpt>
      <trkpt lat="51.230090489742" lon="4.460885904378">
        <ele>12</ele>
        <time>2019-01-25T21:24:26Z</time>
      </trkpt>
      <trkpt lat="51.229654463304" lon="4.461034431646">
        <ele>13.8</ele>
        <time>2019-01-25T21:24:58Z</time>
      </trkpt>
      <trkpt lat="51.229619175505" lon="4.461124369433">
        <ele>11.6</ele>
        <time>2019-01-25T21:25:06Z</time>
      </trkpt>
      <trkpt lat="51.229698803555" lon="4.461141636147">
        <ele>10</ele>
        <time>2019-01-25T21:25:12Z</time>
      </trkpt>
      <trkpt lat="51.22994481232" lon="4.461736164314">
        <ele>3</ele>
        <time>2019-01-25T21:25:45Z</time>
      </trkpt>
      <trkpt lat="51.230054950486" lon="4.462086695372">
        <ele>1.8</ele>
        <time>2019-01-25T21:26:05Z</time>
      </trkpt>
      <trkpt lat="51.230100967117" lon="4.462323986961">
        <ele>2.8</ele>
        <time>2019-01-25T21:26:14Z</time>
      </trkpt>
      <trkpt lat="51.230177996778" lon="4.462587681535">
        <ele>3.6</ele>
        <time>2019-01-25T21:26:28Z</time>
      </trkpt>
      <trkpt lat="51.230122340962" lon="4.462815836853">
        <ele>4.4</ele>
        <time>2019-01-25T21:26:42Z</time>
      </trkpt>
      <trkpt lat="51.230123933523" lon="4.462979702998">
        <ele>6.8</ele>
        <time>2019-01-25T21:26:57Z</time>
      </trkpt>
      <trkpt lat="51.230041790903" lon="4.462970818184">
        <ele>5.8</ele>
        <time>2019-01-25T21:27:04Z</time>
      </trkpt>
      <trkpt lat="51.22966485686" lon="4.462984313043">
        <ele>5.2</ele>
        <time>2019-01-25T21:27:35Z</time>
      </trkpt>
      <trkpt lat="51.229282139306" lon="4.463029742941">
        <ele>7.8</ele>
        <time>2019-01-25T21:28:07Z</time>
      </trkpt>
      <trkpt lat="51.229196895383" lon="4.463605411833">
        <ele>3.6</ele>
        <time>2019-01-25T21:28:40Z</time>
      </trkpt>
      <trkpt lat="51.229245091308" lon="4.463858880489">
        <ele>4.8</ele>
        <time>2019-01-25T21:29:06Z</time>
      </trkpt>
      <trkpt lat="51.229250204267" lon="4.464036409131">
        <ele>5.2</ele>
        <time>2019-01-25T21:29:14Z</time>
      </trkpt>
      <trkpt lat="51.229087679226" lon="4.464198934172">
        <ele>3</ele>
        <time>2019-01-25T21:29:35Z</time>
      </trkpt>
      <trkpt lat="51.229002435303" lon="4.464206226425">
        <ele>1.6</ele>
        <time>2019-01-25T21:29:46Z</time>
      </trkpt>
      <trkpt lat="51.228630865676" lon="4.464258361843">
        <ele>0.8</ele>
        <time>2019-01-25T21:30:18Z</time>
      </trkpt>
      <trkpt lat="51.228600271741" lon="4.464180158716">
        <ele>2</ele>
        <time>2019-01-25T21:30:34Z</time>
      </trkpt>
      <trkpt lat="51.228459958735" lon="4.463505751042">
        <ele>2.4</ele>
        <time>2019-01-25T21:31:10Z</time>
      </trkpt>
      <trkpt lat="51.228285950491" lon="4.463333167721">
        <ele>4.4</ele>
        <time>2019-01-25T21:31:31Z</time>
      </trkpt>
      <trkpt lat="51.228237251652" lon="4.463287318728">
        <ele>7.6</ele>
        <time>2019-01-25T21:31:44Z</time>
      </trkpt>
      <trkpt lat="51.228003480461" lon="4.463155219984">
        <ele>10</ele>
        <time>2019-01-25T21:32:32Z</time>
      </trkpt>
      <trkpt lat="51.227855288469" lon="4.462926226476">
        <ele>11.6</ele>
        <time>2019-01-25T21:32:58Z</time>
      </trkpt>
      <trkpt lat="51.22782838257" lon="4.462212423872">
        <ele>7.6</ele>
        <time>2019-01-25T21:33:32Z</time>
      </trkpt>
      <trkpt lat="51.227771804745" lon="4.461487892436">
        <ele>5.2</ele>
        <time>2019-01-25T21:34:10Z</time>
      </trkpt>
      <trkpt lat="51.227785970156" lon="4.461227550622">
        <ele>4.6</ele>
        <time>2019-01-25T21:34:30Z</time>
      </trkpt>
      <trkpt lat="51.227915135235" lon="4.460570242024">
        <ele>16.2</ele>
        <time>2019-01-25T21:35:04Z</time>
      </trkpt>
      <trkpt lat="51.228085203986" lon="4.460430934846">
        <ele>13.6</ele>
        <time>2019-01-25T21:35:22Z</time>
      </trkpt>
      <trkpt lat="51.228240185317" lon="4.460514167113">
        <ele>10.8</ele>
        <time>2019-01-25T21:35:44Z</time>
      </trkpt>
      <trkpt lat="51.228144547838" lon="4.460417942901">
        <ele>11.8</ele>
        <time>2019-01-25T21:35:55Z</time>
      </trkpt>
      <trkpt lat="51.228249070131" lon="4.460080739064">
        <ele>14.8</ele>
        <time>2019-01-25T21:36:18Z</time>
      </trkpt>
      <trkpt lat="51.228263235542" lon="4.459815284291">
        <ele>9</ele>
        <time>2019-01-25T21:36:32Z</time>
      </trkpt>
      <trkpt lat="51.228271701261" lon="4.459711684007">
        <ele>6.2</ele>
        <time>2019-01-25T21:36:43Z</time>
      </trkpt>
      <trkpt lat="51.228420312348" lon="4.459434159298">
        <ele>8</ele>
        <time>2019-01-25T21:36:56Z</time>
      </trkpt>
      <trkpt lat="51.228448140256" lon="4.459357045818">
        <ele>6.6</ele>
        <time>2019-01-25T21:37:00Z</time>
      </trkpt>
      <trkpt lat="51.228514608723" lon="4.458869470695">
        <ele>0.4</ele>
        <time>2019-01-25T21:37:25Z</time>
      </trkpt>
      <trkpt lat="51.228443027297" lon="4.45856897958">
        <ele>0</ele>
        <time>2019-01-25T21:37:42Z</time>
      </trkpt>
      <trkpt lat="51.2284461286" lon="4.45835356475">
        <ele>0</ele>
        <time>2019-01-25T21:37:55Z</time>
      </trkpt>
      <trkpt lat="51.228541598441" lon="4.458212245916">
        <ele>1</ele>
        <time>2019-01-25T21:38:11Z</time>
      </trkpt>
      <trkpt lat="51.228984498037" lon="4.458102275388">
        <ele>16.4</ele>
        <time>2019-01-25T21:38:52Z</time>
      </trkpt>
      <trkpt lat="51.229041411138" lon="4.458057013128">
        <ele>20</ele>
        <time>2019-01-25T21:39:02Z</time>
      </trkpt>
      <trkpt lat="51.22948632239" lon="4.457974786689">
        <ele>20.8</ele>
        <time>2019-01-25T21:39:50Z</time>
      </trkpt>
      <trkpt lat="51.229798296708" lon="4.457969589911">
        <ele>6.4</ele>
        <time>2019-01-25T21:40:37Z</time>
      </trkpt>
      <trkpt lat="51.229667622887" lon="4.458027676478">
        <ele>3.2</ele>
        <time>2019-01-25T21:40:53Z</time>
      </trkpt>
    </trkseg>
  </trk>
</gpx>